Time;durP1;ratioP1;P1;durP2;ratioP2;P2;SDS_P1;SDS_P2;PMS_P1;PMS_P2;Temp;Humidity;BMP_temperature;BMP_pressure;BME280_temperature;BME280_humidity;BME280_pressure;Samples;Min_cycle;Max_cycle;Signal;HPM_P1;HPM_P2
2024/01/06 00:00:22;;;;;;;23.00;12.60;;;;;;;1.99;87.75;99256.96;130179;1260;114808;-67
2024/01/06 00:03:45;;;;;;;31.10;14.20;;;;;;;1.96;87.52;99253.18;130016;1262;130610;-68
2024/01/06 00:06:46;;;;;;;16.50;8.60;;;;;;;1.93;87.58;99258.36;129829;1259;114924;-68
2024/01/06 00:09:48;;;;;;;44.10;23.00;;;;;;;1.91;87.74;99264.25;130069;1260;114738;-67
2024/01/06 00:12:50;;;;;;;44.80;21.20;;;;;;;1.91;87.73;99271.48;130340;1260;114750;-66
2024/01/06 00:15:52;;;;;;;41.90;21.90;;;;;;;1.91;87.79;99273.91;130320;1257;114665;-69
2024/01/06 00:18:54;;;;;;;38.40;19.70;;;;;;;1.93;87.85;99275.44;130476;1253;114767;-67
2024/01/06 00:21:55;;;;;;;45.80;21.50;;;;;;;1.94;88.10;99274.88;129983;1276;114905;-68
2024/01/06 00:24:57;;;;;;;45.90;22.20;;;;;;;1.97;87.90;99273.76;130345;1258;114778;-68
2024/01/06 00:27:59;;;;;;;45.50;22.50;;;;;;;2.02;88.22;99274.64;130168;1253;114766;-68
2024/01/06 00:31:01;;;;;;;60.30;30.30;;;;;;;2.07;88.27;99270.96;130009;1276;114926;-68
2024/01/06 00:34:03;;;;;;;47.20;25.00;;;;;;;2.13;88.23;99267.09;130111;1272;114759;-68
2024/01/06 00:37:05;;;;;;;49.90;22.20;;;;;;;2.17;88.06;99270.10;130282;1259;114812;-67
2024/01/06 00:40:08;;;;;;;36.90;19.20;;;;;;;2.20;88.20;99272.66;130060;1257;114852;-66
2024/01/06 00:43:10;;;;;;;35.70;17.80;;;;;;;2.22;87.93;99276.31;130246;1256;114696;-66
2024/01/06 00:46:13;;;;;;;44.00;22.30;;;;;;;2.23;87.92;99272.07;129990;1260;114761;-66
2024/01/06 00:49:15;;;;;;;39.40;21.90;;;;;;;2.23;87.84;99274.16;130288;1254;115382;-66
2024/01/06 00:52:17;;;;;;;41.50;20.90;;;;;;;2.24;87.99;99279.94;129941;1277;116466;-66
2024/01/06 00:55:22;;;;;;;42.30;21.10;;;;;;;2.24;88.03;99284.88;130189;1274;114779;-66
2024/01/06 00:58:24;;;;;;;40.60;21.40;;;;;;;2.24;87.81;99282.94;129873;1259;116456;-66
2024/01/06 01:01:26;;;;;;;47.20;23.20;;;;;;;2.24;87.87;99290.36;130121;1254;115500;-66
2024/01/06 01:04:28;;;;;;;46.90;23.00;;;;;;;2.24;87.90;99286.13;130254;1254;115636;-66
2024/01/06 01:07:30;;;;;;;52.20;25.00;;;;;;;2.24;88.09;99287.00;130146;1259;128937;-66
2024/01/06 01:10:32;;;;;;;50.50;24.50;;;;;;;2.23;87.95;99283.69;130130;1259;114696;-66
2024/01/06 01:13:34;;;;;;;53.00;26.20;;;;;;;2.24;88.08;99280.98;130256;1257;114732;-67
2024/01/06 01:16:36;;;;;;;36.00;19.00;;;;;;;2.25;88.01;99283.61;130120;1262;114671;-67
2024/01/06 01:19:37;;;;;;;44.50;22.20;;;;;;;2.23;87.75;99286.84;129992;1260;114873;-66
2024/01/06 01:22:39;;;;;;;37.90;20.30;;;;;;;2.20;87.73;99288.36;130345;1259;115077;-66
2024/01/06 01:25:41;;;;;;;42.60;21.80;;;;;;;2.17;87.87;99293.92;129995;1253;114835;-66
2024/01/06 01:28:43;;;;;;;39.00;21.80;;;;;;;2.14;87.94;99301.22;130274;1257;114731;-67
2024/01/06 01:31:45;;;;;;;45.90;24.10;;;;;;;2.12;87.81;99301.64;130403;1276;114759;-65
2024/01/06 01:34:47;;;;;;;48.00;23.60;;;;;;;2.12;88.06;99306.90;129916;1262;114770;-66
2024/01/06 01:37:49;;;;;;;45.90;23.20;;;;;;;2.15;88.17;99307.38;130298;1258;115364;-66
2024/01/06 01:40:51;;;;;;;43.80;22.30;;;;;;;2.13;87.83;99306.89;130371;1258;116469;-66
2024/01/06 01:43:57;;;;;;;42.90;21.10;;;;;;;2.14;88.07;99305.28;130146;1262;114869;-66
2024/01/06 01:46:59;;;;;;;34.70;17.40;;;;;;;2.15;88.13;99309.47;130135;1276;114701;-66
2024/01/06 01:50:02;;;;;;;44.80;21.70;;;;;;;2.13;88.04;99304.77;130188;1258;115303;-67
2024/01/06 01:53:04;;;;;;;44.60;23.00;;;;;;;2.12;88.06;99302.70;130363;1258;115278;-66
2024/01/06 01:56:06;;;;;;;34.00;17.70;;;;;;;2.11;87.88;99302.70;130377;1257;114775;-67
2024/01/06 01:59:13;;;;;;;40.60;21.80;;;;;;;2.12;88.08;99307.97;130014;1257;114822;-67
2024/01/06 02:02:16;;;;;;;43.40;22.30;;;;;;;2.15;88.09;99311.59;130018;1261;114917;-66
2024/01/06 02:05:17;;;;;;;45.30;21.00;;;;;;;2.17;88.14;99310.30;129877;1257;114822;-67
2024/01/06 02:08:19;;;;;;;28.70;15.40;;;;;;;2.16;88.00;99297.98;129918;1260;114822;-66
2024/01/06 02:11:21;;;;;;;34.40;18.20;;;;;;;2.11;87.86;99294.77;129798;1260;128511;-66
2024/01/06 02:14:23;;;;;;;33.40;18.40;;;;;;;2.06;87.79;99292.31;129832;1261;114822;-67
2024/01/06 02:17:25;;;;;;;34.90;16.80;;;;;;;2.02;87.64;99298.06;129916;1257;114859;-67
2024/01/06 02:20:29;;;;;;;31.80;15.90;;;;;;;1.99;87.77;99295.87;129771;1265;114974;-68
2024/01/06 02:23:31;;;;;;;32.90;15.40;;;;;;;1.95;87.57;99291.05;129826;1262;116459;-67
2024/01/06 02:26:32;;;;;;;32.30;18.30;;;;;;;1.92;87.71;99291.84;129979;1257;114921;-67
2024/01/06 02:29:34;;;;;;;31.90;16.70;;;;;;;1.88;87.66;99296.23;130255;1260;114652;-67
2024/01/06 02:32:36;;;;;;;34.50;18.20;;;;;;;1.84;87.53;99292.98;130187;1265;129104;-66
2024/01/06 02:35:39;;;;;;;33.60;17.80;;;;;;;1.84;87.79;99287.17;130274;1257;114780;-67
2024/01/06 02:38:41;;;;;;;34.40;18.00;;;;;;;1.85;87.83;99284.85;130269;1259;115183;-66
2024/01/06 02:41:43;;;;;;;38.50;20.90;;;;;;;1.83;87.84;99279.61;130355;1267;114726;-67
2024/01/06 02:44:45;;;;;;;35.90;20.10;;;;;;;1.84;87.83;99281.35;130237;1257;114703;-66
2024/01/06 02:47:47;;;;;;;38.00;20.20;;;;;;;1.84;87.87;99280.30;130214;1257;114751;-66
2024/01/06 02:50:49;;;;;;;35.00;18.10;;;;;;;1.82;87.71;99284.05;130314;1254;114738;-66
2024/01/06 02:53:51;;;;;;;28.50;15.90;;;;;;;1.80;87.63;99288.69;130179;1257;128887;-67
2024/01/06 02:56:53;;;;;;;32.70;18.40;;;;;;;1.79;87.65;99294.01;130394;1258;114718;-66
2024/01/06 02:59:55;;;;;;;34.70;19.00;;;;;;;1.78;87.68;99304.41;130265;1259;115154;-66
2024/01/06 03:02:57;;;;;;;39.80;18.90;;;;;;;1.77;87.62;99304.98;129940;1262;115012;-66
2024/01/06 03:05:59;;;;;;;36.90;19.90;;;;;;;1.77;87.79;99299.16;130194;1253;114783;-67
2024/01/06 03:09:02;;;;;;;38.00;20.20;;;;;;;1.78;87.77;99299.33;130054;1253;114777;-66
2024/01/06 03:12:05;;;;;;;24.90;13.00;;;;;;;1.79;87.97;99302.45;130282;1259;114721;-67
2024/01/06 03:15:08;;;;;;;38.60;20.40;;;;;;;1.79;87.63;99294.16;130262;1257;128619;-67
2024/01/06 03:18:11;;;;;;;34.70;18.00;;;;;;;1.79;87.79;99285.73;130155;1259;115369;-67
2024/01/06 03:21:20;;;;;;;40.20;19.50;;;;;;;1.79;88.11;99283.27;130172;1256;115166;-66
2024/01/06 03:24:23;;;;;;;36.60;19.40;;;;;;;1.79;87.90;99286.10;130184;1277;114694;-66
2024/01/06 03:27:25;;;;;;;44.20;22.80;;;;;;;1.75;87.87;99296.39;130252;1259;114715;-66
2024/01/06 03:30:26;;;;;;;42.40;22.50;;;;;;;1.76;87.84;99304.30;130222;1259;115378;-66
2024/01/06 03:33:28;;;;;;;37.00;19.10;;;;;;;1.78;88.39;99311.64;130225;1254;114697;-66
2024/01/06 03:36:30;;;;;;;42.40;22.20;;;;;;;1.79;87.96;99313.00;130007;1269;114766;-66
2024/01/06 03:39:32;;;;;;;38.80;19.30;;;;;;;1.80;88.06;99312.11;130328;1259;115385;-66
2024/01/06 03:42:34;;;;;;;48.70;23.00;;;;;;;1.82;87.95;99309.59;130276;1277;115158;-66
2024/01/06 03:45:36;;;;;;;46.90;23.30;;;;;;;1.85;88.07;99313.02;130199;1259;114782;-66
2024/01/06 03:48:38;;;;;;;36.30;18.50;;;;;;;1.88;88.06;99311.36;130172;1275;114836;-66
2024/01/06 03:51:39;;;;;;;44.90;22.50;;;;;;;1.89;88.03;99316.63;130229;1266;114699;-67
2024/01/06 03:54:41;;;;;;;39.10;19.70;;;;;;;1.90;87.87;99319.21;129869;1278;127968;-66
2024/01/06 03:57:43;;;;;;;32.30;15.90;;;;;;;1.90;87.93;99323.62;130190;1277;114727;-66
2024/01/06 04:00:45;;;;;;;41.10;21.90;;;;;;;1.89;87.90;99323.45;130315;1259;115264;-66
2024/01/06 04:03:46;;;;;;;41.40;20.90;;;;;;;1.92;87.87;99328.12;130299;1277;114899;-66
2024/01/06 04:06:48;;;;;;;42.10;20.20;;;;;;;1.94;87.96;99329.29;130175;1259;114722;-67
2024/01/06 04:09:50;;;;;;;42.00;22.20;;;;;;;1.93;87.73;99326.85;130273;1259;114794;-66
2024/01/06 04:12:52;;;;;;;25.00;11.90;;;;;;;1.93;87.61;99324.77;129960;1277;114771;-66
2024/01/06 04:15:54;;;;;;;42.00;20.30;;;;;;;1.91;87.51;99326.22;130235;1253;114702;-66
2024/01/06 04:18:56;;;;;;;45.70;21.60;;;;;;;1.89;87.61;99326.83;130347;1258;114932;-66
2024/01/06 04:21:58;;;;;;;39.80;19.50;;;;;;;1.91;87.74;99329.75;130024;1260;114900;-66
2024/01/06 04:24:59;;;;;;;45.90;21.90;;;;;;;1.92;87.73;99332.70;130332;1258;114875;-67
2024/01/06 04:28:02;;;;;;;39.70;20.70;;;;;;;1.96;87.98;99335.58;129996;1259;114687;-67
2024/01/06 04:31:03;;;;;;;45.60;24.50;;;;;;;1.99;87.77;99342.02;130306;1254;114798;-66
2024/01/06 04:34:05;;;;;;;46.80;23.80;;;;;;;2.00;87.93;99342.69;130306;1258;114699;-66
2024/01/06 04:37:07;;;;;;;44.40;22.40;;;;;;;2.00;87.89;99341.44;130368;1257;114744;-67
2024/01/06 04:40:10;;;;;;;46.10;23.90;;;;;;;1.97;87.75;99346.28;129939;1262;127940;-66
2024/01/06 04:43:12;;;;;;;41.70;20.80;;;;;;;1.96;87.92;99350.38;130409;1253;114810;-66
2024/01/06 04:46:14;;;;;;;42.90;20.90;;;;;;;1.95;87.70;99345.64;130175;1268;115132;-66
2024/01/06 04:49:16;;;;;;;40.10;20.60;;;;;;;1.91;87.68;99343.66;130193;1259;114760;-67
2024/01/06 04:52:18;;;;;;;38.90;18.70;;;;;;;1.89;87.63;99344.95;130181;1259;114872;-66
2024/01/06 04:55:20;;;;;;;37.70;19.00;;;;;;;1.86;87.93;99348.91;130150;1278;114691;-67
2024/01/06 04:58:22;;;;;;;35.50;18.00;;;;;;;1.85;87.65;99346.84;130235;1259;115400;-67
2024/01/06 05:01:24;;;;;;;40.70;19.20;;;;;;;1.81;87.80;99350.95;129843;1262;128008;-68
2024/01/06 05:04:26;;;;;;;42.20;21.40;;;;;;;1.78;87.93;99356.86;129928;1275;114943;-67
2024/01/06 05:07:27;;;;;;;29.00;14.70;;;;;;;1.77;87.75;99360.77;130221;1259;114766;-67
2024/01/06 05:10:29;;;;;;;40.70;20.50;;;;;;;1.74;87.85;99362.80;129930;1256;115016;-67
2024/01/06 05:13:31;;;;;;;43.40;21.30;;;;;;;1.69;87.88;99363.99;130315;1259;114769;-67
2024/01/06 05:16:33;;;;;;;44.30;22.40;;;;;;;1.69;87.84;99371.23;130321;1275;114797;-67
2024/01/06 05:19:35;;;;;;;37.30;17.90;;;;;;;1.68;87.78;99374.92;129871;1257;114882;-67
2024/01/06 05:22:37;;;;;;;40.90;19.50;;;;;;;1.68;87.79;99383.02;130328;1257;114722;-68
2024/01/06 05:25:39;;;;;;;43.20;20.90;;;;;;;1.63;87.90;99388.10;130259;1259;115411;-68
2024/01/06 05:28:41;;;;;;;39.50;18.40;;;;;;;1.60;87.79;99393.45;130243;1258;114721;-67
2024/01/06 05:31:43;;;;;;;43.20;20.90;;;;;;;1.60;87.90;99396.27;130211;1254;114785;-66
2024/01/06 05:34:44;;;;;;;31.90;14.70;;;;;;;1.63;87.82;99395.14;130383;1272;114675;-68
2024/01/06 05:37:47;;;;;;;40.10;21.80;;;;;;;1.64;87.92;99395.83;129896;1260;114982;-66
2024/01/06 05:40:49;;;;;;;44.20;20.80;;;;;;;1.67;87.94;99399.77;130454;1259;114769;-67
2024/01/06 05:43:51;;;;;;;38.40;18.80;;;;;;;1.71;87.89;99403.56;130379;1259;114787;-67
2024/01/06 05:46:53;;;;;;;35.70;19.80;;;;;;;1.73;87.79;99405.98;130450;1259;115313;-66
2024/01/06 05:49:55;;;;;;;24.60;11.50;;;;;;;1.74;87.75;99404.87;130235;1259;114745;-66
2024/01/06 05:52:56;;;;;;;33.90;17.20;;;;;;;1.73;87.62;99408.25;130380;1271;114747;-67
2024/01/06 05:55:58;;;;;;;34.30;17.10;;;;;;;1.70;87.54;99411.86;130436;1259;115434;-69
2024/01/06 05:59:00;;;;;;;29.10;16.70;;;;;;;1.69;87.72;99418.03;130412;1259;114707;-67
2024/01/06 06:02:02;;;;;;;51.40;24.80;;;;;;;1.70;87.78;99422.05;130362;1258;114704;-67
2024/01/06 06:05:04;;;;;;;38.70;19.80;;;;;;;1.74;87.55;99420.02;130369;1259;114795;-67
2024/01/06 06:08:06;;;;;;;31.00;17.40;;;;;;;1.76;87.51;99421.02;130028;1262;127818;-67
2024/01/06 06:11:10;;;;;;;33.40;17.30;;;;;;;1.76;87.40;99418.73;130278;1270;114719;-66
2024/01/06 06:14:12;;;;;;;36.20;18.70;;;;;;;1.76;87.32;99425.93;130301;1256;114711;-66
2024/01/06 06:17:14;;;;;;;39.70;20.70;;;;;;;1.76;87.42;99428.39;130130;1259;115350;-67
2024/01/06 06:20:16;;;;;;;32.50;16.40;;;;;;;1.78;87.44;99429.77;130266;1274;114707;-67
2024/01/06 06:23:18;;;;;;;34.10;19.80;;;;;;;1.76;87.16;99428.92;130299;1259;114771;-68
2024/01/06 06:26:20;;;;;;;36.10;17.40;;;;;;;1.70;86.83;99428.92;130161;1277;114802;-68
2024/01/06 06:29:22;;;;;;;35.40;19.50;;;;;;;1.65;86.93;99432.57;130294;1278;115147;-68
2024/01/06 06:32:24;;;;;;;33.90;17.30;;;;;;;1.65;87.03;99436.80;130205;1270;115300;-68
2024/01/06 06:35:26;;;;;;;26.40;13.40;;;;;;;1.62;86.86;99437.05;130240;1259;114716;-66
2024/01/06 06:38:29;;;;;;;33.30;19.10;;;;;;;1.54;86.53;99434.80;130185;1260;114657;-67
2024/01/06 06:41:31;;;;;;;32.80;17.10;;;;;;;1.52;86.67;99441.02;130275;1271;114737;-66
2024/01/06 06:44:33;;;;;;;36.90;18.90;;;;;;;1.48;86.78;99450.46;130055;1262;114780;-66
2024/01/06 06:47:35;;;;;;;33.80;19.30;;;;;;;1.47;86.89;99464.91;130241;1257;114865;-67
2024/01/06 06:50:37;;;;;;;40.50;21.70;;;;;;;1.44;86.45;99464.09;130369;1267;114783;-67
2024/01/06 06:53:38;;;;;;;36.30;18.70;;;;;;;1.44;86.80;99464.98;129847;1259;114968;-66
2024/01/06 06:56:40;;;;;;;37.80;18.50;;;;;;;1.47;86.94;99472.11;130272;1259;114705;-67
2024/01/06 06:59:42;;;;;;;44.80;20.70;;;;;;;1.49;87.09;99477.69;130228;1258;114699;-67
2024/01/06 07:02:44;;;;;;;36.50;20.30;;;;;;;1.53;87.31;99477.23;129955;1261;114741;-67
2024/01/06 07:05:46;;;;;;;35.80;18.60;;;;;;;1.57;87.12;99483.66;130161;1257;116421;-67
2024/01/06 07:08:48;;;;;;;35.70;16.70;;;;;;;1.61;87.24;99482.12;130207;1260;114707;-68
2024/01/06 07:11:50;;;;;;;30.20;17.00;;;;;;;1.63;87.01;99482.45;130179;1255;129393;-68
2024/01/06 07:14:52;;;;;;;31.40;16.30;;;;;;;1.65;86.70;99481.34;129903;1259;115174;-68
2024/01/06 07:17:53;;;;;;;19.10;10.90;;;;;;;1.64;86.96;99480.65;130482;1259;114761;-69
2024/01/06 07:20:55;;;;;;;30.50;15.60;;;;;;;1.64;86.69;99481.53;130278;1259;114792;-68
2024/01/06 07:23:57;;;;;;;26.50;15.30;;;;;;;1.63;86.69;99488.07;130346;1260;114760;-69
2024/01/06 07:26:59;;;;;;;19.60;10.40;;;;;;;1.61;86.78;99494.98;130303;1259;114696;-67
2024/01/06 07:30:01;;;;;;;29.90;16.30;;;;;;;1.62;86.50;99493.55;130262;1257;114740;-68
2024/01/06 07:33:03;;;;;;;29.20;15.10;;;;;;;1.62;86.48;99489.86;130304;1276;114729;-67
2024/01/06 07:36:05;;;;;;;33.80;16.00;;;;;;;1.62;86.49;99492.66;130391;1260;114741;-67
2024/01/06 07:39:07;;;;;;;27.20;14.20;;;;;;;1.64;86.62;99503.36;130226;1253;114786;-67
2024/01/06 07:42:09;;;;;;;66.60;34.60;;;;;;;1.62;86.29;99505.88;130395;1254;114788;-68
2024/01/06 07:45:12;;;;;;;44.40;27.60;;;;;;;1.63;86.32;99509.38;130456;1254;114795;-65
2024/01/06 07:48:14;;;;;;;45.40;27.30;;;;;;;1.66;86.55;99518.10;130086;1254;114900;-66
2024/01/06 07:51:17;;;;;;;29.70;17.30;;;;;;;1.67;86.66;99524.92;130280;1276;114907;-68
2024/01/06 07:54:19;;;;;;;28.10;13.80;;;;;;;1.66;86.52;99529.16;130298;1260;114753;-66
2024/01/06 07:57:20;;;;;;;28.40;15.70;;;;;;;1.63;86.18;99531.19;130172;1262;115409;-64
2024/01/06 08:00:23;;;;;;;32.00;18.40;;;;;;;1.59;86.49;99531.46;129913;1276;114888;-66
2024/01/06 08:03:25;;;;;;;30.30;16.80;;;;;;;1.58;86.62;99531.48;130296;1260;114781;-66
2024/01/06 08:06:27;;;;;;;34.20;16.50;;;;;;;1.59;86.59;99532.00;130371;1267;114780;-66
2024/01/06 08:09:28;;;;;;;37.80;19.80;;;;;;;1.59;86.65;99539.91;130201;1262;114962;-66
2024/01/06 08:12:31;;;;;;;31.90;16.40;;;;;;;1.59;86.47;99542.02;130174;1267;114784;-66
2024/01/06 08:15:33;;;;;;;20.80;10.80;;;;;;;1.60;86.94;99549.91;130379;1259;114681;-66
2024/01/06 08:18:35;;;;;;;47.70;27.80;;;;;;;1.61;86.77;99553.06;129886;1263;126949;-66
2024/01/06 08:21:37;;;;;;;36.40;22.00;;;;;;;1.64;86.73;99555.62;130212;1259;114830;-67
2024/01/06 08:24:39;;;;;;;31.10;16.10;;;;;;;1.68;86.65;99562.20;130335;1259;114722;-72
2024/01/06 08:27:45;;;;;;;33.30;17.40;;;;;;;1.72;86.94;99566.53;130187;1254;115376;-76
2024/01/06 08:30:47;;;;;;;33.90;17.00;;;;;;;1.80;87.00;99572.48;130721;1262;114841;-75
2024/01/06 08:33:49;;;;;;;30.70;18.60;;;;;;;1.89;86.89;99574.90;130829;1260;114705;-76
2024/01/06 08:36:51;;;;;;;30.00;16.50;;;;;;;1.95;86.71;99574.73;130354;1259;114750;-72
2024/01/06 08:39:52;;;;;;;27.40;14.60;;;;;;;2.01;86.67;99576.00;130160;1260;114792;-75
2024/01/06 08:42:54;;;;;;;30.50;16.40;;;;;;;2.05;86.84;99580.13;130333;1273;114753;-75
2024/01/06 08:45:56;;;;;;;29.50;14.80;;;;;;;2.05;86.37;99589.10;130053;1257;116381;-74
2024/01/06 08:49:00;;;;;;;12.80;6.20;;;;;;;2.06;86.23;99591.38;130251;1257;114810;-79
2024/01/06 08:52:02;;;;;;;27.70;16.00;;;;;;;2.01;86.23;99596.07;130347;1259;115177;-75
2024/01/06 08:55:05;;;;;;;29.40;14.20;;;;;;;2.01;86.34;99599.77;130309;1260;115295;-73
2024/01/06 08:58:07;;;;;;;30.10;15.40;;;;;;;1.99;86.42;99605.80;130256;1259;114754;-80
2024/01/06 09:01:08;;;;;;;29.00;15.40;;;;;;;1.99;86.61;99612.33;130473;1276;114746;-75
2024/01/06 09:04:12;;;;;;;30.40;15.90;;;;;;;1.99;86.63;99613.20;130450;1268;114710;-73
2024/01/06 09:07:14;;;;;;;32.30;17.70;;;;;;;1.98;87.01;99611.81;130153;1263;114975;-74
2024/01/06 09:10:19;;;;;;;29.60;18.90;;;;;;;1.99;87.19;99616.20;130399;1257;114750;-73
2024/01/06 09:13:23;;;;;;;32.10;16.70;;;;;;;2.00;87.05;99616.35;129953;1262;114847;-70
2024/01/06 09:16:25;;;;;;;28.40;14.60;;;;;;;1.95;86.65;99622.45;130242;1260;114721;-73
2024/01/06 09:19:28;;;;;;;36.10;19.60;;;;;;;1.89;86.73;99627.00;130173;1269;115327;-72
2024/01/06 09:22:30;;;;;;;33.80;19.30;;;;;;;1.91;86.96;99633.66;130223;1259;114744;-74
2024/01/06 09:25:32;;;;;;;20.00;9.50;;;;;;;1.94;87.28;99635.86;130134;1275;114833;-72
2024/01/06 09:28:33;;;;;;;31.70;16.90;;;;;;;1.91;86.91;99637.00;130182;1275;114724;-74
2024/01/06 09:31:35;;;;;;;38.40;20.40;;;;;;;1.90;87.01;99637.73;130247;1269;114715;-73
2024/01/06 09:34:37;;;;;;;32.00;17.30;;;;;;;1.95;87.50;99640.08;129945;1263;114759;-74
2024/01/06 09:37:40;;;;;;;29.30;17.20;;;;;;;1.96;87.12;99638.63;130040;1261;114877;-73
2024/01/06 09:40:44;;;;;;;27.10;15.30;;;;;;;1.98;87.19;99643.70;130086;1262;114750;-73
2024/01/06 09:43:47;;;;;;;30.20;16.40;;;;;;;1.96;87.16;99646.73;130114;1275;114871;-74
2024/01/06 09:46:50;;;;;;;31.80;18.10;;;;;;;1.97;87.53;99645.33;130291;1259;114741;-74
2024/01/06 09:49:54;;;;;;;32.50;17.20;;;;;;;2.00;87.48;99645.40;130223;1275;114717;-75
2024/01/06 09:53:05;;;;;;;30.10;17.10;;;;;;;2.01;87.33;99646.80;130140;1270;114746;-72
2024/01/06 09:56:07;;;;;;;26.30;13.70;;;;;;;2.04;87.46;99644.61;130079;1270;128707;-73
2024/01/06 09:59:09;;;;;;;25.40;15.00;;;;;;;2.05;87.44;99644.23;130135;1269;114789;-74
2024/01/06 10:02:15;;;;;;;20.70;12.00;;;;;;;2.05;87.29;99647.75;130265;1270;114811;-73
2024/01/06 10:05:18;;;;;;;29.10;16.20;;;;;;;2.03;87.25;99649.38;130421;1260;114758;-73
2024/01/06 10:08:20;;;;;;;24.30;14.60;;;;;;;2.04;87.27;99654.12;130146;1260;116251;-76
2024/01/06 10:11:22;;;;;;;24.30;13.70;;;;;;;2.06;87.22;99653.90;130589;1269;114698;-80
2024/01/06 10:14:25;;;;;;;29.20;16.60;;;;;;;2.06;86.91;99656.36;130438;1260;115616;-80
2024/01/06 10:17:28;;;;;;;31.40;17.00;;;;;;;2.08;86.95;99661.22;130256;1260;114790;-80
2024/01/06 10:20:30;;;;;;;21.00;11.20;;;;;;;2.11;87.14;99662.56;130190;1259;114712;-76
2024/01/06 10:23:32;;;;;;;26.30;13.90;;;;;;;2.08;86.60;99663.34;130260;1276;114705;-78
2024/01/06 10:26:34;;;;;;;34.50;18.50;;;;;;;2.00;86.55;99667.59;130427;1269;115113;-77
2024/01/06 10:29:36;;;;;;;26.80;15.30;;;;;;;2.00;86.76;99669.54;130240;1272;114700;-78
2024/01/06 10:32:39;;;;;;;25.80;16.70;;;;;;;1.95;86.56;99671.60;130393;1256;115356;-76
2024/01/06 10:35:42;;;;;;;26.00;15.50;;;;;;;1.88;86.53;99668.25;130233;1260;114740;-74
2024/01/06 10:38:47;;;;;;;24.70;13.60;;;;;;;1.86;86.74;99667.23;130202;1276;114699;-74
2024/01/06 10:41:49;;;;;;;27.80;14.30;;;;;;;1.81;86.53;99664.20;130241;1269;114816;-74
2024/01/06 10:44:51;;;;;;;28.20;16.10;;;;;;;1.77;86.69;99663.21;130176;1262;115395;-74
2024/01/06 10:47:54;;;;;;;25.80;13.80;;;;;;;1.76;86.80;99660.94;130178;1269;114677;-71
2024/01/06 10:50:56;;;;;;;33.80;22.70;;;;;;;1.78;86.78;99661.63;130254;1269;114786;-78
2024/01/06 10:54:00;;;;;;;21.80;11.60;;;;;;;1.79;86.88;99664.76;130066;1256;114741;-76
2024/01/06 10:57:03;;;;;;;30.30;16.00;;;;;;;1.74;86.59;99660.67;130251;1260;128427;-74
2024/01/06 11:00:06;;;;;;;26.70;14.70;;;;;;;1.71;86.69;99655.44;130439;1263;114803;-77
2024/01/06 11:03:09;;;;;;;34.10;20.50;;;;;;;1.70;86.91;99655.46;130208;1260;114804;-75
2024/01/06 11:06:12;;;;;;;34.90;18.80;;;;;;;1.63;86.79;99651.23;130103;1261;115100;-75
2024/01/06 11:09:20;;;;;;;33.80;18.80;;;;;;;1.57;86.77;99646.11;130047;1260;115144;-75
2024/01/06 11:12:22;;;;;;;35.30;19.40;;;;;;;1.57;87.05;99647.84;130096;1259;251731;-76
2024/01/06 11:15:47;;;;;;;35.90;21.80;;;;;;;1.58;87.24;99645.00;130354;1254;115490;-77
2024/01/06 11:18:49;;;;;;;32.70;19.30;;;;;;;1.59;87.25;99646.21;130341;1277;114769;-76
2024/01/06 11:21:51;;;;;;;24.60;13.30;;;;;;;1.60;87.49;99649.52;130563;1260;115096;-78
2024/01/06 11:24:58;;;;;;;40.80;23.80;;;;;;;1.61;87.34;99654.09;130348;1260;114689;-76
2024/01/06 11:28:07;;;;;;;41.30;21.90;;;;;;;1.58;87.01;99664.36;130179;1259;114828;-74
2024/01/06 11:31:09;;;;;;;37.40;22.20;;;;;;;1.53;87.01;99674.16;132317;1254;129091;-74
2024/01/06 11:34:18;;;;;;;42.70;23.50;;;;;;;1.51;87.28;99676.84;130399;1254;115450;-72
2024/01/06 11:37:39;;;;;;;42.80;23.80;;;;;;;1.50;87.31;99674.91;130115;1254;114762;-74
2024/01/06 11:40:42;;;;;;;45.20;22.80;;;;;;;1.50;87.52;99672.11;130216;1271;114935;-73
2024/01/06 11:43:44;;;;;;;38.60;22.90;;;;;;;1.52;87.38;99671.54;130105;1264;114820;-74
2024/01/06 11:46:49;;;;;;;38.90;20.70;;;;;;;1.54;87.27;99671.52;130298;1261;114671;-73
2024/01/06 11:49:55;;;;;;;37.30;20.60;;;;;;;1.50;86.96;99676.52;130465;1267;114801;-73
2024/01/06 11:52:57;;;;;;;44.10;24.60;;;;;;;1.43;86.62;99674.02;130449;1254;115366;-72
2024/01/06 11:56:00;;;;;;;44.80;22.00;;;;;;;1.41;86.84;99670.73;130335;1257;115164;-73
2024/01/06 11:59:02;;;;;;;40.50;19.90;;;;;;;1.45;87.30;99676.63;130519;1259;114765;-78
2024/01/06 12:02:05;;;;;;;47.70;25.60;;;;;;;1.46;86.89;99673.80;130609;1267;114731;-73
2024/01/06 12:05:15;;;;;;;51.30;27.70;;;;;;;1.45;87.07;99673.10;130313;1258;129002;-74
2024/01/06 12:08:19;;;;;;;41.10;19.90;;;;;;;1.45;86.86;99673.63;130452;1260;114781;-75
2024/01/06 12:11:21;;;;;;;51.30;26.00;;;;;;;1.43;86.80;99674.02;130459;1259;114707;-73
2024/01/06 12:14:24;;;;;;;54.10;26.50;;;;;;;1.44;86.76;99676.48;130252;1270;115397;-75
2024/01/06 12:17:30;;;;;;;47.70;25.40;;;;;;;1.42;86.56;99673.34;130397;1260;114686;-72
2024/01/06 12:20:32;;;;;;;43.30;23.90;;;;;;;1.41;86.72;99677.23;130799;1260;128833;-76
2024/01/06 12:23:34;;;;;;;37.90;21.30;;;;;;;1.43;86.63;99681.42;130565;1269;114777;-78
2024/01/06 12:26:36;;;;;;;35.00;19.80;;;;;;;1.42;86.61;99687.58;130499;1254;114792;-75
2024/01/06 12:29:41;;;;;;;45.40;24.90;;;;;;;1.43;86.79;99687.58;130465;1267;114701;-76
2024/01/06 12:32:45;;;;;;;51.40;26.00;;;;;;;1.43;86.37;99691.27;130459;1270;114796;-81
2024/01/06 12:35:47;;;;;;;48.50;23.40;;;;;;;1.46;86.58;99696.48;130798;1275;114690;-79
2024/01/06 12:38:49;;;;;;;51.80;26.10;;;;;;;1.46;86.46;99694.55;130552;1260;114701;-77
2024/01/06 12:41:51;;;;;;;47.50;22.90;;;;;;;1.49;86.30;99692.38;130758;1255;114785;-75
2024/01/06 12:44:54;;;;;;;45.60;22.60;;;;;;;1.47;86.34;99690.66;130578;1268;114740;-77
2024/01/06 12:47:56;;;;;;;42.40;21.80;;;;;;;1.47;86.20;99693.65;130991;1261;115161;-76
2024/01/06 12:51:01;;;;;;;39.80;18.80;;;;;;;1.42;85.67;99697.27;130582;1260;115336;-76
2024/01/06 12:54:06;;;;;;;22.90;11.40;;;;;;;1.32;85.77;99702.59;130328;1262;114805;-77
2024/01/06 12:57:07;;;;;;;40.60;21.70;;;;;;;1.27;85.77;99706.21;130241;1262;114998;-77
2024/01/06 13:00:11;;;;;;;29.00;14.90;;;;;;;1.22;85.84;99707.20;130207;1261;114706;-74
2024/01/06 13:03:14;;;;;;;32.30;16.70;;;;;;;1.15;85.84;99702.23;130715;1270;115144;-77
2024/01/06 13:06:18;;;;;;;30.60;15.90;;;;;;;1.13;85.84;99703.69;131676;1254;113941;-73
2024/01/06 13:09:23;;;;;;;28.70;15.00;;;;;;;1.15;86.05;99704.71;131217;1254;114712;-75
2024/01/06 13:12:26;;;;;;;45.50;24.80;;;;;;;1.16;86.10;99706.81;130523;1261;114739;-75
2024/01/06 13:15:28;;;;;;;44.80;22.30;;;;;;;1.13;85.93;99707.40;130284;1257;115987;-70
2024/01/06 13:18:30;;;;;;;40.70;21.30;;;;;;;1.15;86.18;99712.62;130336;1260;114725;-76
2024/01/06 13:21:33;;;;;;;43.30;21.80;;;;;;;1.14;85.63;99718.98;130270;1260;114814;-74
2024/01/06 13:24:35;;;;;;;39.10;21.10;;;;;;;1.12;85.69;99721.65;130354;1259;114657;-73
2024/01/06 13:27:37;;;;;;;38.80;21.10;;;;;;;1.07;85.54;99725.27;130308;1258;114761;-76
2024/01/06 13:30:41;;;;;;;42.50;19.90;;;;;;;1.02;85.37;99731.86;130345;1258;115017;-76
2024/01/06 13:33:43;;;;;;;43.00;23.30;;;;;;;0.97;85.38;99729.86;130472;1258;115160;-76
2024/01/06 13:36:45;;;;;;;49.40;25.40;;;;;;;0.93;85.25;99733.10;130128;1260;114799;-73
2024/01/06 13:39:47;;;;;;;46.70;24.20;;;;;;;0.91;85.72;99734.71;130407;1261;114862;-72
2024/01/06 13:42:53;;;;;;;49.80;25.30;;;;;;;0.92;85.90;99742.60;130140;1261;114714;-75
2024/01/06 13:45:55;;;;;;;45.70;21.70;;;;;;;0.91;85.84;99744.73;130300;1270;114743;-76
2024/01/06 13:48:58;;;;;;;39.10;21.10;;;;;;;0.95;85.93;99747.48;130130;1277;114763;-76